Time;durP1;ratioP1;P1;durP2;ratioP2;P2;SDS_P1;SDS_P2;PMS_P1;PMS_P2;Temp;Humidity;BMP_temperature;BMP_pressure;BME280_temperature;BME280_humidity;BME280_pressure;Samples;Min_cycle;Max_cycle;Signal;HPM_P1;HPM_P2
2023/04/26 00:02:18;;;;;;;11.52;8.85;;;;;;;;;;5074424;28;20059;-59
2023/04/26 00:04:46;;;;;;;15.43;9.88;;;;;;;;;;5074252;28;20037;-59
2023/04/26 00:07:14;;;;;;;11.57;9.43;;;;;;;;;;5074438;28;20041;-59
2023/04/26 00:09:43;;;;;;;12.27;10.25;;;;;;;;;;5074323;28;20044;-59
2023/04/26 00:12:11;;;;;;;11.80;9.20;;;;;;;;;;5057129;28;20375;-59
2023/04/26 00:14:38;;;;;;;11.75;9.02;;;;;;;;;;5074138;28;20044;-59
2023/04/26 00:17:06;;;;;;;11.05;9.20;;;;;;;;;;5056054;28;20044;-59
2023/04/26 00:19:33;;;;;;;10.50;9.00;;;;;;;;;;5073998;28;20048;-59
2023/04/26 00:22:01;;;;;;;12.27;9.55;;;;;;;;;;5074023;28;20052;-59
2023/04/26 00:24:29;;;;;;;11.57;9.65;;;;;;;;;;5073916;28;20048;-59
2023/04/26 00:26:56;;;;;;;11.10;9.38;;;;;;;;;;5073870;28;20041;-59
2023/04/26 00:29:24;;;;;;;12.02;10.73;;;;;;;;;;5073834;28;20052;-59
2023/04/26 00:31:51;;;;;;;13.00;9.48;;;;;;;;;;5072447;28;20131;-60
2023/04/26 00:34:19;;;;;;;13.23;9.93;;;;;;;;;;5072551;28;20047;-59
2023/04/26 00:36:46;;;;;;;11.65;9.70;;;;;;;;;;5074104;28;20044;-59
2023/04/26 00:39:14;;;;;;;12.38;9.93;;;;;;;;;;5072358;28;20090;-58
2023/04/26 00:41:41;;;;;;;15.15;9.45;;;;;;;;;;5055607;28;20119;-59
2023/04/26 00:44:09;;;;;;;14.05;10.73;;;;;;;;;;5055967;28;20090;-59
2023/04/26 00:46:36;;;;;;;13.10;9.73;;;;;;;;;;5073547;28;20433;-59
2023/04/26 00:49:04;;;;;;;15.18;10.50;;;;;;;;;;5055606;28;20521;-59
2023/04/26 00:51:32;;;;;;;14.05;11.10;;;;;;;;;;5039081;28;20384;-59
2023/04/26 00:53:59;;;;;;;13.38;11.00;;;;;;;;;;5055561;28;20498;-59
2023/04/26 00:56:27;;;;;;;13.68;10.75;;;;;;;;;;5055563;28;20151;-59
2023/04/26 00:58:54;;;;;;;13.93;11.45;;;;;;;;;;5055433;28;20084;-59
2023/04/26 01:01:22;;;;;;;12.48;11.07;;;;;;;;;;5055327;28;20140;-59
2023/04/26 01:03:49;;;;;;;14.02;10.38;;;;;;;;;;5073238;28;20062;-59
2023/04/26 01:06:17;;;;;;;14.93;11.88;;;;;;;;;;5071968;28;20076;-59
2023/04/26 01:08:44;;;;;;;11.80;10.57;;;;;;;;;;5073038;28;20049;-59
2023/04/26 01:11:12;;;;;;;14.90;11.05;;;;;;;;;;5071838;28;20047;-59
2023/04/26 01:13:40;;;;;;;14.52;11.20;;;;;;;;;;5055217;28;20306;-59
2023/04/26 01:16:08;;;;;;;14.55;10.75;;;;;;;;;;5055006;28;20036;-58
2023/04/26 01:18:35;;;;;;;15.25;11.68;;;;;;;;;;5071710;28;20109;-59
2023/04/26 01:21:03;;;;;;;15.07;11.93;;;;;;;;;;5071572;28;20071;-59
2023/04/26 01:23:31;;;;;;;13.75;11.27;;;;;;;;;;5055042;28;20132;-59
2023/04/26 01:25:59;;;;;;;12.98;10.88;;;;;;;;;;5071464;28;20472;-59
2023/04/26 01:28:26;;;;;;;16.73;11.23;;;;;;;;;;5071608;28;20386;-59
2023/04/26 01:30:54;;;;;;;14.35;11.48;;;;;;;;;;5054952;28;20041;-59
2023/04/26 01:33:22;;;;;;;14.45;11.45;;;;;;;;;;5072915;28;20123;-59
2023/04/26 01:35:51;;;;;;;14.25;11.75;;;;;;;;;;5072860;28;20056;-59
2023/04/26 01:38:19;;;;;;;18.02;11.50;;;;;;;;;;5071397;28;20134;-58
2023/04/26 01:40:46;;;;;;;16.58;11.63;;;;;;;;;;5054556;28;20060;-60
2023/04/26 01:43:14;;;;;;;16.65;11.88;;;;;;;;;;5071771;28;20052;-59
2023/04/26 01:45:41;;;;;;;18.27;11.98;;;;;;;;;;5071571;28;20048;-59
2023/04/26 01:48:27;;;;;;;17.40;11.55;;;;;;;;;;5043902;28;20414;-59
2023/04/26 01:50:55;;;;;;;16.80;11.60;;;;;;;;;;5072629;28;20482;-59
2023/04/26 01:53:22;;;;;;;13.55;11.13;;;;;;;;;;5071390;28;20037;-59
2023/04/26 01:55:50;;;;;;;19.30;12.10;;;;;;;;;;5071223;28;20135;-59
2023/04/26 01:58:17;;;;;;;14.63;11.55;;;;;;;;;;5054088;28;20041;-59
2023/04/26 02:00:45;;;;;;;16.23;12.10;;;;;;;;;;5071244;28;20048;-59
2023/04/26 02:03:12;;;;;;;14.90;11.27;;;;;;;;;;5054473;28;20094;-59
2023/04/26 02:05:40;;;;;;;13.90;10.95;;;;;;;;;;5054432;28;20040;-59
2023/04/26 02:08:07;;;;;;;18.63;11.63;;;;;;;;;;5054711;28;20041;-59
2023/04/26 02:10:35;;;;;;;13.35;11.95;;;;;;;;;;5072326;28;20055;-59
2023/04/26 02:13:03;;;;;;;18.65;11.98;;;;;;;;;;5072381;28;20048;-59
2023/04/26 02:15:30;;;;;;;17.10;12.13;;;;;;;;;;5072447;28;20437;-59
2023/04/26 02:17:58;;;;;;;15.05;11.32;;;;;;;;;;5070958;28;20051;-59
2023/04/26 02:20:25;;;;;;;15.77;11.63;;;;;;;;;;5054135;28;20044;-59
2023/04/26 02:22:53;;;;;;;12.80;10.90;;;;;;;;;;5071060;28;20040;-59
2023/04/26 02:25:21;;;;;;;14.95;11.63;;;;;;;;;;5071162;28;20053;-59
2023/04/26 02:27:48;;;;;;;13.93;11.27;;;;;;;;;;5072283;28;20037;-59
2023/04/26 02:30:16;;;;;;;17.45;12.32;;;;;;;;;;5072354;28;20033;-59
2023/04/26 02:32:43;;;;;;;14.38;11.85;;;;;;;;;;5070888;28;20098;-59
2023/04/26 02:35:11;;;;;;;16.70;12.18;;;;;;;;;;5054397;28;20041;-59
2023/04/26 02:37:39;;;;;;;16.20;12.35;;;;;;;;;;5054126;28;20048;-59
2023/04/26 02:40:09;;;;;;;16.50;12.15;;;;;;;;;;5070818;28;20127;-59
2023/04/26 02:42:37;;;;;;;14.98;12.02;;;;;;;;;;5054066;28;20067;-59
2023/04/26 02:45:05;;;;;;;15.32;12.10;;;;;;;;;;5054055;28;20391;-59
2023/04/26 02:47:35;;;;;;;15.75;12.05;;;;;;;;;;5070614;28;20041;-59
2023/04/26 02:50:03;;;;;;;15.05;12.50;;;;;;;;;;5054083;28;20041;-59
2023/04/26 02:52:31;;;;;;;16.08;12.55;;;;;;;;;;5054100;28;20459;-59
2023/04/26 02:55:00;;;;;;;19.13;12.38;;;;;;;;;;5070773;28;20127;-59
2023/04/26 02:57:27;;;;;;;15.02;11.93;;;;;;;;;;5053847;28;20548;-59
2023/04/26 02:59:55;;;;;;;15.38;11.85;;;;;;;;;;5053910;28;20131;-59
2023/04/26 03:02:23;;;;;;;14.20;12.07;;;;;;;;;;5070790;28;20037;-61
2023/04/26 03:04:51;;;;;;;18.15;12.30;;;;;;;;;;5053825;28;20131;-59
2023/04/26 03:07:21;;;;;;;14.68;11.27;;;;;;;;;;5070625;28;20040;-59
2023/04/26 03:09:48;;;;;;;14.63;12.25;;;;;;;;;;5072731;28;20036;-59
2023/04/26 03:12:16;;;;;;;16.15;11.95;;;;;;;;;;5057481;28;20517;-59
2023/04/26 03:14:44;;;;;;;15.23;12.57;;;;;;;;;;5075475;28;20036;-59
2023/04/26 03:17:11;;;;;;;14.95;11.52;;;;;;;;;;5057211;28;20086;-59
2023/04/26 03:19:39;;;;;;;17.73;11.20;;;;;;;;;;5111222;28;20108;-59
2023/04/26 03:22:06;;;;;;;16.50;11.90;;;;;;;;;;5111229;28;20447;-60
2023/04/26 03:24:34;;;;;;;14.18;11.75;;;;;;;;;;5111228;28;20079;-59
2023/04/26 03:27:01;;;;;;;14.85;10.95;;;;;;;;;;5111121;28;20123;-59
2023/04/26 03:29:29;;;;;;;15.23;11.40;;;;;;;;;;5111104;28;20047;-60
2023/04/26 03:31:56;;;;;;;15.45;11.68;;;;;;;;;;5111097;28;20047;-59
2023/04/26 03:34:24;;;;;;;14.75;11.07;;;;;;;;;;5095396;28;20498;-59
2023/04/26 03:36:52;;;;;;;14.10;10.88;;;;;;;;;;5093910;28;20036;-59
2023/04/26 03:39:19;;;;;;;14.98;10.95;;;;;;;;;;5093817;28;20044;-59
2023/04/26 03:41:47;;;;;;;15.77;12.00;;;;;;;;;;5110796;28;20044;-59
2023/04/26 03:44:14;;;;;;;13.18;10.40;;;;;;;;;;5095338;28;20104;-59
2023/04/26 03:46:42;;;;;;;15.15;10.57;;;;;;;;;;5093845;28;20105;-59
2023/04/26 03:49:10;;;;;;;12.60;9.90;;;;;;;;;;5110839;28;20451;-59
2023/04/26 03:51:37;;;;;;;14.32;9.65;;;;;;;;;;5110489;28;20040;-59
2023/04/26 03:54:05;;;;;;;11.90;10.18;;;;;;;;;;5094941;28;20505;-59
2023/04/26 03:56:32;;;;;;;15.60;10.20;;;;;;;;;;5110595;28;20036;-59
2023/04/26 03:59:00;;;;;;;12.05;10.07;;;;;;;;;;5110358;28;20051;-58
2023/04/26 04:01:28;;;;;;;14.30;10.43;;;;;;;;;;5110490;28;20063;-58
2023/04/26 04:03:56;;;;;;;11.13;9.18;;;;;;;;;;5110368;28;20119;-58
2023/04/26 04:06:24;;;;;;;13.25;9.93;;;;;;;;;;5110259;28;20589;-59
2023/04/26 04:08:51;;;;;;;16.13;9.90;;;;;;;;;;5076503;28;20078;-59
2023/04/26 04:11:19;;;;;;;13.05;9.70;;;;;;;;;;5056306;28;20060;-59
2023/04/26 04:13:47;;;;;;;12.07;9.13;;;;;;;;;;5056072;28;20131;-59
2023/04/26 04:16:14;;;;;;;16.77;10.15;;;;;;;;;;5072924;28;20059;-59
2023/04/26 04:18:42;;;;;;;10.40;8.73;;;;;;;;;;5056209;28;20367;-59
2023/04/26 04:21:10;;;;;;;15.65;9.45;;;;;;;;;;5072094;28;20040;-59
2023/04/26 04:23:38;;;;;;;11.65;9.30;;;;;;;;;;5055895;28;20044;-59
2023/04/26 04:26:11;;;;;;;13.20;9.80;;;;;;;;;;5056013;28;20067;-63
2023/04/26 04:28:43;;;;;;;10.60;8.75;;;;;;;;;;5056014;28;20054;-61
2023/04/26 04:31:11;;;;;;;12.85;9.80;;;;;;;;;;5073724;28;20037;-61
2023/04/26 04:33:39;;;;;;;17.73;9.75;;;;;;;;;;5055924;28;20506;-61
2023/04/26 04:36:08;;;;;;;12.23;8.70;;;;;;;;;;5055798;28;20048;-61
2023/04/26 04:38:36;;;;;;;11.48;9.02;;;;;;;;;;5055981;28;20150;-61
2023/04/26 04:41:07;;;;;;;11.32;9.07;;;;;;;;;;5055447;28;20060;-61
2023/04/26 04:43:35;;;;;;;11.15;8.68;;;;;;;;;;5055604;28;20155;-61
2023/04/26 04:46:02;;;;;;;11.07;8.90;;;;;;;;;;5072473;28;20049;-62
2023/04/26 04:48:30;;;;;;;11.13;8.60;;;;;;;;;;5086622;28;20063;-60
2023/04/26 04:50:57;;;;;;;9.95;8.55;;;;;;;;;;5075279;28;20044;-60
2023/04/26 04:53:25;;;;;;;18.45;11.40;;;;;;;;;;5092496;28;20078;-60
2023/04/26 04:55:53;;;;;;;11.30;8.40;;;;;;;;;;5075461;28;20048;-60
2023/04/26 04:58:21;;;;;;;10.57;8.20;;;;;;;;;;5075252;28;20047;-61
2023/04/26 05:00:52;;;;;;;10.85;7.88;;;;;;;;;;5092257;28;20078;-58
2023/04/26 05:03:25;;;;;;;11.85;8.40;;;;;;;;;;5072627;28;20547;-60
2023/04/26 05:05:53;;;;;;;11.57;7.75;;;;;;;;;;5083043;28;20428;-61
2023/04/26 05:08:20;;;;;;;11.43;7.70;;;;;;;;;;5064907;28;20044;-60
2023/04/26 05:10:49;;;;;;;10.88;7.35;;;;;;;;;;5067764;28;20130;-61
2023/04/26 05:13:16;;;;;;;9.45;7.65;;;;;;;;;;5077027;28;20039;-60
2023/04/26 05:15:44;;;;;;;11.85;7.13;;;;;;;;;;5073537;28;20040;-61
2023/04/26 05:18:11;;;;;;;12.00;7.65;;;;;;;;;;5057918;28;20047;-61
2023/04/26 05:20:40;;;;;;;13.25;7.32;;;;;;;;;;5072401;28;20048;-61
2023/04/26 05:23:07;;;;;;;9.15;6.97;;;;;;;;;;5067839;28;20044;-61
2023/04/26 05:25:38;;;;;;;8.18;6.40;;;;;;;;;;5072301;28;20505;-62
2023/04/26 05:28:34;;;;;;;8.07;6.38;;;;;;;;;;5072314;28;20055;-62
2023/04/26 05:31:18;;;;;;;9.25;6.40;;;;;;;;;;5053596;28;20048;-62
2023/04/26 05:33:55;;;;;;;8.70;6.30;;;;;;;;;;5071119;28;20079;-62
2023/04/26 05:36:29;;;;;;;7.80;5.93;;;;;;;;;;5071324;28;20052;-62
2023/04/26 05:38:56;;;;;;;7.97;5.15;;;;;;;;;;5077301;28;20036;-63
2023/04/26 05:41:24;;;;;;;7.57;5.60;;;;;;;;;;5092710;28;20047;-63
2023/04/26 05:43:51;;;;;;;5.97;4.97;;;;;;;;;;5087295;28;20090;-63
2023/04/26 05:46:20;;;;;;;5.45;4.38;;;;;;;;;;5070343;28;20045;-63
2023/04/26 05:48:48;;;;;;;7.55;4.25;;;;;;;;;;5061375;28;20123;-63
2023/04/26 05:51:16;;;;;;;5.32;4.68;;;;;;;;;;5067764;28;20115;-63
2023/04/26 05:53:43;;;;;;;6.03;4.30;;;;;;;;;;5071917;28;20555;-63
2023/04/26 05:56:11;;;;;;;5.63;3.97;;;;;;;;;;5021686;28;20071;-63
2023/04/26 05:58:39;;;;;;;5.78;3.90;;;;;;;;;;5070646;28;20098;-64
2023/04/26 06:01:07;;;;;;;4.88;3.70;;;;;;;;;;5054160;28;20048;-64
2023/04/26 06:03:36;;;;;;;4.72;3.70;;;;;;;;;;5070872;28;20047;-64
2023/04/26 06:06:04;;;;;;;5.32;3.40;;;;;;;;;;5054110;28;20095;-62
2023/04/26 06:08:32;;;;;;;5.00;3.55;;;;;;;;;;5037881;28;20048;-63
2023/04/26 06:10:59;;;;;;;4.75;3.40;;;;;;;;;;5074677;28;20417;-62
2023/04/26 06:13:27;;;;;;;4.75;3.78;;;;;;;;;;5090858;28;20122;-63
2023/04/26 06:15:55;;;;;;;5.30;3.92;;;;;;;;;;5074207;28;20048;-63
2023/04/26 06:18:22;;;;;;;4.90;3.53;;;;;;;;;;5074263;28;20119;-63
2023/04/26 06:20:50;;;;;;;4.32;3.45;;;;;;;;;;5091006;28;20142;-62
2023/04/26 06:23:18;;;;;;;7.80;3.47;;;;;;;;;;5073618;28;20445;-62
2023/04/26 06:25:46;;;;;;;4.40;3.65;;;;;;;;;;5083414;28;20038;-63
2023/04/26 06:28:14;;;;;;;4.38;3.20;;;;;;;;;;5073935;28;20036;-62
2023/04/26 06:30:42;;;;;;;6.97;3.40;;;;;;;;;;5073908;28;20559;-62
2023/04/26 06:33:10;;;;;;;3.75;3.13;;;;;;;;;;5074026;28;20032;-63
2023/04/26 06:35:39;;;;;;;4.05;3.00;;;;;;;;;;5091036;28;20619;-63
2023/04/26 06:38:08;;;;;;;4.28;3.10;;;;;;;;;;5083890;28;20048;-63
2023/04/26 06:40:36;;;;;;;3.80;2.88;;;;;;;;;;5085125;28;20074;-64
2023/04/26 06:43:03;;;;;;;3.70;2.72;;;;;;;;;;5076985;28;20102;-64
2023/04/26 06:45:31;;;;;;;5.95;2.85;;;;;;;;;;5075759;28;20040;-62
2023/04/26 06:48:01;;;;;;;5.05;2.83;;;;;;;;;;5075750;28;20037;-63
2023/04/26 06:50:29;;;;;;;4.72;2.60;;;;;;;;;;5059628;28;20486;-62
2023/04/26 06:52:57;;;;;;;4.18;2.53;;;;;;;;;;5096003;28;20047;-61
2023/04/26 06:55:24;;;;;;;9.00;2.67;;;;;;;;;;5074531;28;20048;-62
2023/04/26 06:57:52;;;;;;;3.70;2.70;;;;;;;;;;5094526;28;20295;-62
2023/04/26 07:00:20;;;;;;;4.07;3.00;;;;;;;;;;5095940;28;20036;-61
2023/04/26 07:02:47;;;;;;;4.28;2.60;;;;;;;;;;5095638;28;20040;-63
2023/04/26 07:05:15;;;;;;;5.63;2.92;;;;;;;;;;5095532;28;20093;-63
2023/04/26 07:07:42;;;;;;;4.88;2.63;;;;;;;;;;5094312;28;20398;-64
2023/04/26 07:10:10;;;;;;;2.78;2.58;;;;;;;;;;5094296;28;20124;-62
2023/04/26 07:12:37;;;;;;;2.55;2.35;;;;;;;;;;5095407;28;20210;-62
2023/04/26 07:15:05;;;;;;;4.28;2.25;;;;;;;;;;5095660;28;20132;-62
2023/04/26 07:17:33;;;;;;;2.40;2.20;;;;;;;;;;5095419;28;20109;-62
2023/04/26 07:20:00;;;;;;;2.75;2.20;;;;;;;;;;5095454;28;20044;-62
2023/04/26 07:22:28;;;;;;;3.17;2.40;;;;;;;;;;5095310;28;20100;-62
2023/04/26 07:24:55;;;;;;;4.20;2.50;;;;;;;;;;5095214;28;20044;-62
2023/04/26 07:27:23;;;;;;;6.72;3.35;;;;;;;;;;5077207;28;20044;-62
2023/04/26 07:29:55;;;;;;;4.00;2.30;;;;;;;;;;5095007;28;20032;-62
2023/04/26 07:32:22;;;;;;;3.28;2.60;;;;;;;;;;5095198;28;20071;-62
2023/04/26 07:34:50;;;;;;;5.43;2.47;;;;;;;;;;5094869;28;20032;-63
2023/04/26 07:37:18;;;;;;;2.53;2.08;;;;;;;;;;5095061;28;20071;-63
2023/04/26 07:39:45;;;;;;;3.83;2.33;;;;;;;;;;5094687;28;20040;-62
2023/04/26 07:42:12;;;;;;;3.90;2.60;;;;;;;;;;5067279;28;20059;-62
2023/04/26 07:44:40;;;;;;;3.20;1.80;;;;;;;;;;5074069;28;20045;-64
2023/04/26 07:47:14;;;;;;;2.00;1.80;;;;;;;;;;5074420;28;20486;-64
2023/04/26 07:49:42;;;;;;;4.50;2.10;;;;;;;;;;5074315;28;20360;-64
2023/04/26 07:52:11;;;;;;;2.88;2.08;;;;;;;;;;5058112;28;20071;-64
2023/04/26 07:54:39;;;;;;;5.05;2.47;;;;;;;;;;5067874;28;20051;-64
2023/04/26 07:57:06;;;;;;;3.22;2.15;;;;;;;;;;5074572;28;20062;-64
2023/04/26 07:59:34;;;;;;;3.80;2.20;;;;;;;;;;5074010;28;20086;-64
2023/04/26 08:02:01;;;;;;;4.25;2.10;;;;;;;;;;5074168;28;20063;-64
2023/04/26 08:04:33;;;;;;;3.17;2.00;;;;;;;;;;5073074;28;20057;-64
2023/04/26 08:07:01;;;;;;;3.25;1.92;;;;;;;;;;5076034;28;20132;-64
2023/04/26 08:09:29;;;;;;;4.97;2.08;;;;;;;;;;5094423;28;20198;-64
2023/04/26 08:11:57;;;;;;;2.30;1.80;;;;;;;;;;5094207;28;20097;-64
2023/04/26 08:14:25;;;;;;;2.25;1.63;;;;;;;;;;5094164;28;20032;-64
2023/04/26 08:16:52;;;;;;;5.28;1.90;;;;;;;;;;5094219;28;20564;-64
2023/04/26 08:19:20;;;;;;;1.83;1.73;;;;;;;;;;5093958;28;20051;-64
2023/04/26 08:21:48;;;;;;;2.10;1.88;;;;;;;;;;5094094;28;20036;-64
2023/04/26 08:24:15;;;;;;;3.53;1.60;;;;;;;;;;5094133;28;20044;-64
2023/04/26 08:26:42;;;;;;;3.63;1.98;;;;;;;;;;5094204;28;20075;-64
2023/04/26 08:29:10;;;;;;;3.75;1.67;;;;;;;;;;5093995;28;20047;-64
2023/04/26 08:31:37;;;;;;;1.77;1.65;;;;;;;;;;5093826;28;20036;-64
2023/04/26 08:34:06;;;;;;;2.85;1.60;;;;;;;;;;5094322;28;20040;-64
2023/04/26 08:36:37;;;;;;;2.97;1.50;;;;;;;;;;5093751;28;20434;-64
2023/04/26 08:39:05;;;;;;;3.88;2.08;;;;;;;;;;5075295;28;20409;-64
2023/04/26 08:41:41;;;;;;;1.40;1.30;;;;;;;;;;5073398;28;20064;-65
2023/04/26 08:44:09;;;;;;;2.60;1.70;;;;;;;;;;5073382;28;20041;-65
2023/04/26 08:46:40;;;;;;;4.95;1.90;;;;;;;;;;5075437;28;20071;-64
2023/04/26 08:49:20;;;;;;;2.15;1.95;;;;;;;;;;5089955;28;20105;-64
2023/04/26 08:51:49;;;;;;;2.83;1.90;;;;;;;;;;5076365;28;20526;-64
2023/04/26 08:54:17;;;;;;;2.03;1.80;;;;;;;;;;5073238;28;20036;-64
2023/04/26 08:56:46;;;;;;;2.25;2.03;;;;;;;;;;5073043;28;20051;-64
2023/04/26 08:59:13;;;;;;;4.30;1.90;;;;;;;;;;5087588;28;20074;-64
2023/04/26 09:01:43;;;;;;;1.95;1.83;;;;;;;;;;5092500;28;20455;-64
2023/04/26 09:04:11;;;;;;;3.00;2.17;;;;;;;;;;5079862;28;20085;-64
2023/04/26 09:06:40;;;;;;;2.95;1.50;;;;;;;;;;5071876;28;20112;-64
2023/04/26 09:09:08;;;;;;;3.78;1.90;;;;;;;;;;5072623;28;20474;-65
2023/04/26 09:11:55;;;;;;;4.38;1.77;;;;;;;;;;5082793;28;20036;-65
2023/04/26 09:14:23;;;;;;;4.15;2.00;;;;;;;;;;5092860;28;20040;-64
2023/04/26 09:16:51;;;;;;;4.53;1.98;;;;;;;;;;5093154;28;20036;-65
2023/04/26 09:19:34;;;;;;;5.78;1.95;;;;;;;;;;5079238;28;20072;-65
2023/04/26 09:22:02;;;;;;;2.63;1.50;;;;;;;;;;5071141;28;20051;-64
2023/04/26 09:24:46;;;;;;;2.58;1.48;;;;;;;;;;5072399;28;20135;-64
2023/04/26 09:27:15;;;;;;;3.75;1.70;;;;;;;;;;5072359;28;20418;-64
2023/04/26 09:30:04;;;;;;;5.07;1.73;;;;;;;;;;5072166;28;20102;-64
2023/04/26 09:32:51;;;;;;;3.50;1.95;;;;;;;;;;5071431;28;20055;-64
2023/04/26 09:35:24;;;;;;;2.17;1.63;;;;;;;;;;5078070;28;20043;-64
2023/04/26 09:38:21;;;;;;;2.53;2.05;;;;;;;;;;5093056;28;20036;-65
2023/04/26 09:40:49;;;;;;;3.72;2.30;;;;;;;;;;5076426;28;20062;-67
2023/04/26 09:43:19;;;;;;;5.93;2.08;;;;;;;;;;5092994;28;20043;-64
2023/04/26 09:45:52;;;;;;;3.55;1.90;;;;;;;;;;5092723;28;20039;-64
2023/04/26 09:48:21;;;;;;;3.03;1.67;;;;;;;;;;5092852;28;20043;-64
2023/04/26 09:50:53;;;;;;;4.45;1.60;;;;;;;;;;5091973;28;20292;-64
2023/04/26 09:53:45;;;;;;;1.95;1.50;;;;;;;;;;5091407;28;20043;-64
2023/04/26 09:56:12;;;;;;;2.28;1.30;;;;;;;;;;5065412;28;20052;-64
2023/04/26 09:58:40;;;;;;;2.55;2.10;;;;;;;;;;5092511;28;20056;-64
2023/04/26 10:01:08;;;;;;;1.30;1.20;;;;;;;;;;5092308;28;20512;-64
2023/04/26 10:03:36;;;;;;;1.85;1.75;;;;;;;;;;5092555;28;20040;-64
2023/04/26 10:06:04;;;;;;;2.53;1.60;;;;;;;;;;5092812;28;20241;-66
2023/04/26 10:08:32;;;;;;;2.00;1.38;;;;;;;;;;5092556;28;20039;-64
2023/04/26 10:11:01;;;;;;;2.70;1.20;;;;;;;;;;5092366;28;20054;-64
2023/04/26 10:13:28;;;;;;;2.13;1.40;;;;;;;;;;5092548;28;20099;-64
2023/04/26 10:15:56;;;;;;;3.15;1.30;;;;;;;;;;5092596;28;20548;-64
2023/04/26 10:18:26;;;;;;;2.05;1.27;;;;;;;;;;5093269;28;20048;-65
2023/04/26 10:20:58;;;;;;;3.47;1.77;;;;;;;;;;5096720;28;20048;-65
2023/04/26 10:23:26;;;;;;;3.58;1.58;;;;;;;;;;5096982;28;20127;-64
2023/04/26 10:25:55;;;;;;;1.45;1.35;;;;;;;;;;5096685;28;20165;-65
2023/04/26 10:28:41;;;;;;;1.23;1.13;;;;;;;;;;5096684;28;20040;-65
2023/04/26 10:31:09;;;;;;;3.35;1.42;;;;;;;;;;5096541;28;20157;-64
2023/04/26 10:33:36;;;;;;;4.28;1.50;;;;;;;;;;5095229;28;20060;-65
2023/04/26 10:36:07;;;;;;;5.13;1.33;;;;;;;;;;5095401;28;20051;-65
2023/04/26 10:38:36;;;;;;;1.42;1.15;;;;;;;;;;5096515;28;20375;-65
2023/04/26 10:41:22;;;;;;;3.63;1.10;;;;;;;;;;5095313;28;20036;-62
2023/04/26 10:43:52;;;;;;;2.38;1.38;;;;;;;;;;5096277;28;20079;-63
2023/04/26 10:46:34;;;;;;;7.95;3.88;;;;;;;;;;5096244;28;20051;-63
2023/04/26 10:49:14;;;;;;;2.47;1.50;;;;;;;;;;5096369;28;20558;-63
2023/04/26 10:51:41;;;;;;;1.45;1.33;;;;;;;;;;5096257;28;20146;-63
2023/04/26 10:54:09;;;;;;;3.03;1.48;;;;;;;;;;5095048;28;20062;-63
2023/04/26 10:56:40;;;;;;;1.45;1.10;;;;;;;;;;5096169;28;20036;-63
2023/04/26 10:59:07;;;;;;;3.67;1.30;;;;;;;;;;5095835;28;20048;-63
2023/04/26 11:01:55;;;;;;;3.60;2.90;;;;;;;;;;5096021;28;20543;-63
2023/04/26 11:04:22;;;;;;;3.20;1.48;;;;;;;;;;5095838;28;20032;-63
2023/04/26 11:06:54;;;;;;;1.75;1.13;;;;;;;;;;5095984;28;20040;-63
2023/04/26 11:09:48;;;;;;;1.65;1.40;;;;;;;;;;5094468;28;20039;-63
2023/04/26 11:12:16;;;;;;;2.78;1.10;;;;;;;;;;5074895;28;20052;-63
2023/04/26 11:14:44;;;;;;;2.65;1.08;;;;;;;;;;5096019;28;20036;-63
2023/04/26 11:17:12;;;;;;;2.40;1.00;;;;;;;;;;5094569;28;20055;-63
2023/04/26 11:19:42;;;;;;;2.30;1.90;;;;;;;;;;5095548;28;20036;-63
2023/04/26 11:22:10;;;;;;;1.52;1.08;;;;;;;;;;5095759;28;20147;-65
2023/04/26 11:24:38;;;;;;;2.95;1.17;;;;;;;;;;5095665;28;20059;-65
2023/04/26 11:27:09;;;;;;;4.07;1.17;;;;;;;;;;5095563;28;20044;-65
2023/04/26 11:29:37;;;;;;;1.25;0.90;;;;;;;;;;5094661;28;20044;-65
2023/04/26 11:32:04;;;;;;;2.13;0.90;;;;;;;;;;5094203;28;20044;-65
2023/04/26 11:34:33;;;;;;;1.98;1.50;;;;;;;;;;5095385;28;20044;-65
2023/04/26 11:37:03;;;;;;;4.63;0.98;;;;;;;;;;5095691;28;20423;-64
2023/04/26 11:39:32;;;;;;;2.95;1.00;;;;;;;;;;5095286;28;20505;-64
2023/04/26 11:42:06;;;;;;;2.72;1.10;;;;;;;;;;5095252;28;20048;-64
2023/04/26 11:44:34;;;;;;;0.80;0.75;;;;;;;;;;5095261;28;20064;-65
2023/04/26 11:47:05;;;;;;;1.45;1.05;;;;;;;;;;5094266;28;20379;-63
2023/04/26 11:49:33;;;;;;;4.10;1.00;;;;;;;;;;5077054;28;20440;-64
2023/04/26 11:52:02;;;;;;;1.63;1.00;;;;;;;;;;5094916;28;20060;-65
2023/04/26 11:54:30;;;;;;;0.70;0.70;;;;;;;;;;5091781;28;20032;-64
2023/04/26 11:56:58;;;;;;;2.03;0.73;;;;;;;;;;5092438;28;20048;-65
2023/04/26 11:59:25;;;;;;;1.88;1.30;;;;;;;;;;5076238;28;20395;-65
2023/04/26 12:01:53;;;;;;;4.03;1.20;;;;;;;;;;5066224;28;20563;-64
2023/04/26 12:04:27;;;;;;;1.20;1.00;;;;;;;;;;5081855;28;20482;-64
2023/04/26 12:06:57;;;;;;;2.05;1.17;;;;;;;;;;5093198;28;20539;-65
2023/04/26 12:09:30;;;;;;;0.82;0.80;;;;;;;;;;5094282;28;20109;-64
2023/04/26 12:12:07;;;;;;;2.75;0.68;;;;;;;;;;5079380;28;20109;-64
2023/04/26 12:14:35;;;;;;;1.58;0.85;;;;;;;;;;5081472;28;20059;-64
2023/04/26 12:17:05;;;;;;;4.43;1.20;;;;;;;;;;5094111;28;20123;-65
2023/04/26 12:19:33;;;;;;;2.17;1.13;;;;;;;;;;5094076;28;20038;-66
2023/04/26 12:22:00;;;;;;;1.00;0.90;;;;;;;;;;5094193;28;20490;-66
2023/04/26 12:24:37;;;;;;;3.72;1.00;;;;;;;;;;5094067;28;20055;-66
2023/04/26 12:27:06;;;;;;;1.95;0.98;;;;;;;;;;5081672;28;20087;-65
2023/04/26 12:29:34;;;;;;;0.80;0.80;;;;;;;;;;5077656;28;20457;-65
2023/04/26 12:32:02;;;;;;;2.58;1.15;;;;;;;;;;5093219;28;20058;-65
2023/04/26 12:34:30;;;;;;;1.85;0.90;;;;;;;;;;5092967;28;20036;-65
2023/04/26 12:37:00;;;;;;;3.25;0.95;;;;;;;;;;5093707;28;20047;-65
2023/04/26 12:39:27;;;;;;;1.95;0.90;;;;;;;;;;5093287;28;20040;-64
2023/04/26 12:41:55;;;;;;;1.00;0.98;;;;;;;;;;5093114;28;20051;-64
2023/04/26 12:44:23;;;;;;;1.58;1.23;;;;;;;;;;5093600;28;20474;-63
2023/04/26 12:46:50;;;;;;;2.55;1.33;;;;;;;;;;5075182;28;20040;-65
2023/04/26 12:49:18;;;;;;;1.45;1.35;;;;;;;;;;5092133;28;20051;-63
2023/04/26 12:51:46;;;;;;;1.42;0.98;;;;;;;;;;5081377;28;20406;-64
2023/04/26 12:54:13;;;;;;;2.15;0.93;;;;;;;;;;5072554;28;20047;-64
2023/04/26 12:56:43;;;;;;;2.78;1.10;;;;;;;;;;5075249;28;20072;-64
2023/04/26 12:59:10;;;;;;;0.93;0.82;;;;;;;;;;5078725;28;20052;-65
2023/04/26 13:01:38;;;;;;;1.17;0.65;;;;;;;;;;5092079;28;20409;-63
2023/04/26 13:04:06;;;;;;;1.65;1.05;;;;;;;;;;5071575;28;20028;-63
2023/04/26 13:06:34;;;;;;;2.40;1.30;;;;;;;;;;5071625;28;20479;-64
2023/04/26 13:09:02;;;;;;;1.92;1.20;;;;;;;;;;5072973;28;20082;-64
2023/04/26 13:11:30;;;;;;;1.70;0.95;;;;;;;;;;5072867;28;20063;-63
2023/04/26 13:13:57;;;;;;;2.00;1.10;;;;;;;;;;5072788;28;20402;-64
2023/04/26 13:19:20;;;;;;;2.40;1.00;;;;;;;;;;5072946;28;20498;-64
2023/04/26 13:21:48;;;;;;;1.48;1.20;;;;;;;;;;5087040;28;20036;-64
2023/04/26 13:24:15;;;;;;;1.13;1.02;;;;;;;;;;5073994;28;20055;-65
2023/04/26 13:26:42;;;;;;;2.33;1.50;;;;;;;;;;5072658;28;20518;-64
2023/04/26 13:29:10;;;;;;;2.03;1.25;;;;;;;;;;5072314;28;20040;-63
2023/04/26 13:31:43;;;;;;;4.53;1.48;;;;;;;;;;5054504;28;20552;-63
2023/04/26 13:34:11;;;;;;;5.25;1.55;;;;;;;;;;5054324;28;20074;-64
2023/04/26 13:36:39;;;;;;;6.07;1.60;;;;;;;;;;5072438;28;20036;-64
2023/04/26 13:39:07;;;;;;;3.17;1.60;;;;;;;;;;5072453;28;20123;-64
2023/04/26 13:41:34;;;;;;;7.22;1.95;;;;;;;;;;5085441;28;20494;-63
2023/04/26 13:44:03;;;;;;;5.45;1.77;;;;;;;;;;5072334;28;20044;-64
2023/04/26 13:46:30;;;;;;;2.72;1.30;;;;;;;;;;5071475;28;20038;-63
2023/04/26 13:48:58;;;;;;;3.42;1.70;;;;;;;;;;5054624;28;20106;-64
2023/04/26 13:51:26;;;;;;;1.35;1.10;;;;;;;;;;5072232;28;20041;-66
2023/04/26 13:53:54;;;;;;;1.80;1.38;;;;;;;;;;5071431;28;20139;-67
2023/04/26 13:56:22;;;;;;;1.80;1.33;;;;;;;;;;5078134;28;20497;-66
2023/04/26 13:58:57;;;;;;;2.53;1.30;;;;;;;;;;5058148;28;20043;-66
2023/04/26 14:01:25;;;;;;;2.25;1.58;;;;;;;;;;5056291;28;20036;-66
2023/04/26 14:03:52;;;;;;;2.22;1.70;;;;;;;;;;5076311;28;20083;-66
2023/04/26 14:06:22;;;;;;;3.22;1.60;;;;;;;;;;5091986;28;20048;-66
2023/04/26 14:08:50;;;;;;;2.40;1.42;;;;;;;;;;5062175;28;20442;-65
2023/04/26 14:11:18;;;;;;;2.05;1.50;;;;;;;;;;5081989;28;20517;-67
2023/04/26 14:13:46;;;;;;;2.22;1.27;;;;;;;;;;5087869;28;20044;-68
2023/04/26 14:16:13;;;;;;;3.88;1.50;;;;;;;;;;5073346;28;20040;-66
2023/04/26 14:18:43;;;;;;;1.05;1.05;;;;;;;;;;5077616;28;20454;-67
2023/04/26 14:21:11;;;;;;;1.92;1.33;;;;;;;;;;5076267;28;20115;-67
2023/04/26 14:23:40;;;;;;;1.45;0.98;;;;;;;;;;5076610;28;20047;-70
2023/04/26 14:26:07;;;;;;;1.90;1.52;;;;;;;;;;5071045;28;20040;-68
2023/04/26 14:28:35;;;;;;;2.13;1.25;;;;;;;;;;5071882;28;20029;-67
2023/04/26 14:31:02;;;;;;;2.80;1.90;;;;;;;;;;5071754;28;20079;-68
2023/04/26 14:33:30;;;;;;;4.18;1.75;;;;;;;;;;5071723;28;20072;-68
2023/04/26 14:35:57;;;;;;;2.42;1.58;;;;;;;;;;5071802;28;20037;-68
2023/04/26 14:38:25;;;;;;;2.72;1.40;;;;;;;;;;5071732;28;20044;-68
2023/04/26 14:40:53;;;;;;;2.00;1.80;;;;;;;;;;5071360;28;20048;-68
2023/04/26 14:43:20;;;;;;;3.72;2.38;;;;;;;;;;5071849;28;20047;-68
2023/04/26 14:45:47;;;;;;;3.45;2.22;;;;;;;;;;5071419;28;20037;-68
2023/04/26 14:48:15;;;;;;;3.05;2.15;;;;;;;;;;5037331;28;20052;-67
2023/04/26 14:50:43;;;;;;;3.22;2.00;;;;;;;;;;5071458;28;20078;-68